Time;durP1;ratioP1;P1;durP2;ratioP2;P2;SDS_P1;SDS_P2;PMS_P1;PMS_P2;Temp;Humidity;BMP_temperature;BMP_pressure;BME280_temperature;BME280_humidity;BME280_pressure;Samples;Min_cycle;Max_cycle;Signal;HPM_P1;HPM_P2
2022/01/28 00:01:02;;;;;;;1.73;1.20;;;;;;;0.63;100.00;94115.78;2123717;27;20085;-82
2022/01/28 00:02:16;;;;;;;1.30;1.17;;;;;;;0.50;100.00;94112.38;2110523;28;20024;-82
2022/01/28 00:03:17;;;;;;;2.05;1.85;;;;;;;0.62;100.00;94116.88;2116562;27;20028;-82
2022/01/28 00:04:18;;;;;;;1.73;1.30;;;;;;;0.63;100.00;94120.28;2123858;27;20130;-82
2022/01/28 00:05:21;;;;;;;1.60;1.40;;;;;;;0.73;100.00;94130.34;2115398;28;20028;-81
2022/01/28 00:06:22;;;;;;;1.90;1.30;;;;;;;0.53;100.00;94133.84;2115745;27;20024;-81
2022/01/28 00:07:22;;;;;;;1.83;1.30;;;;;;;0.65;100.00;94128.59;2123681;27;20027;-82
2022/01/28 00:08:23;;;;;;;1.48;1.17;;;;;;;0.64;100.00;94119.16;2124096;27;20346;-82
2022/01/28 00:09:23;;;;;;;1.50;1.40;;;;;;;0.84;100.00;94123.56;2123969;27;20019;-82
2022/01/28 00:10:26;;;;;;;1.48;1.27;;;;;;;0.72;100.00;94123.56;2126354;27;20087;-83
2022/01/28 00:11:26;;;;;;;2.67;1.73;;;;;;;0.70;100.00;94126.53;2126012;27;20554;-82
2022/01/28 00:12:28;;;;;;;1.63;1.35;;;;;;;0.78;100.00;94124.13;2116847;27;20031;-82
2022/01/28 00:13:38;;;;;;;1.58;1.30;;;;;;;0.53;100.00;94124.09;2115163;28;20023;-81
2022/01/28 00:14:48;;;;;;;1.42;1.33;;;;;;;0.54;100.00;94133.53;2108201;28;20459;-82
2022/01/28 00:36:31;;;;;;;2.22;1.88;;;;;;;0.20;100.00;94130.16;2115959;28;20111;-82
2022/01/28 00:36:48;;;;;;;4.60;3.00;;;;;;;0.25;100.00;94134.44;2123253;27;20471;-82
2022/01/28 00:38:58;;;;;;;5.53;2.63;;;;;;;0.15;100.00;94135.63;2123879;27;20031;-82
2022/01/28 00:39:59;;;;;;;3.72;2.83;;;;;;;0.20;100.00;94153.81;2126292;27;20046;-82
2022/01/28 00:40:59;;;;;;;5.57;3.00;;;;;;;0.23;100.00;94153.19;2116358;27;20027;-82
2022/01/28 00:41:59;;;;;;;3.63;3.08;;;;;;;0.18;100.00;94147.38;2123561;27;20023;-82
2022/01/28 00:43:01;;;;;;;4.57;3.50;;;;;;;0.21;100.00;94136.19;2115189;28;20439;-81
2022/01/28 00:44:02;;;;;;;8.50;3.20;;;;;;;0.26;100.00;94138.59;2122609;27;20023;-81
2022/01/28 00:45:04;;;;;;;4.57;3.38;;;;;;;0.18;100.00;94144.72;2123494;27;20446;-82
2022/01/28 00:46:05;;;;;;;5.78;3.45;;;;;;;0.25;100.00;94140.47;2121012;27;20064;-83
2022/01/28 00:47:05;;;;;;;5.68;3.67;;;;;;;0.30;100.00;94134.22;2123493;27;20378;-82
2022/01/28 00:48:12;;;;;;;5.10;3.28;;;;;;;0.35;100.00;94141.94;2123447;27;20015;-81
2022/01/28 00:49:12;;;;;;;6.15;4.00;;;;;;;0.30;100.00;94139.50;2115120;28;20119;-82
2022/01/28 00:50:14;;;;;;;4.93;3.80;;;;;;;0.53;100.00;94137.25;2115774;28;20040;-82
2022/01/28 00:51:14;;;;;;;7.68;4.35;;;;;;;0.48;100.00;94142.69;2115679;28;20739;-81
2022/01/28 00:52:15;;;;;;;6.13;4.10;;;;;;;0.33;100.00;94136.22;2123433;27;20027;-82
2022/01/28 00:53:15;;;;;;;8.68;4.28;;;;;;;0.24;100.00;94133.69;2114912;28;20079;-82
2022/01/28 00:54:17;;;;;;;4.95;3.67;;;;;;;0.41;100.00;94145.13;2106440;28;20399;-82
2022/01/28 00:55:18;;;;;;;5.40;3.92;;;;;;;0.23;100.00;94145.28;2111979;27;20057;-82
2022/01/28 00:56:18;;;;;;;6.28;4.25;;;;;;;0.24;100.00;94151.31;2123453;27;20027;-83
2022/01/28 00:57:19;;;;;;;7.45;4.45;;;;;;;0.27;100.00;94152.53;2120886;27;20031;-82
2022/01/28 00:58:19;;;;;;;6.40;4.35;;;;;;;0.40;100.00;94144.34;2106416;28;20103;-83
2022/01/28 00:59:20;;;;;;;5.00;4.05;;;;;;;0.40;100.00;94152.25;2114903;28;20027;-81
2022/01/28 01:00:20;;;;;;;5.05;3.85;;;;;;;0.36;100.00;94153.97;2123656;27;20023;-81
2022/01/28 01:01:21;;;;;;;5.78;4.10;;;;;;;0.46;100.00;94150.16;2114824;28;20069;-82
2022/01/28 01:02:22;;;;;;;5.78;3.83;;;;;;;0.37;100.00;94173.91;2106433;28;20035;-83
2022/01/28 01:03:22;;;;;;;5.35;3.92;;;;;;;0.48;100.00;94163.75;2114788;28;20241;-81
2022/01/28 01:04:24;;;;;;;6.93;4.15;;;;;;;0.47;100.00;94173.50;2123499;27;20023;-82
2022/01/28 01:05:25;;;;;;;7.07;4.50;;;;;;;0.23;100.00;94173.44;2114889;28;20093;-82
2022/01/28 01:06:26;;;;;;;6.45;4.35;;;;;;;0.20;100.00;94172.22;2115045;28;20016;-81
2022/01/28 01:07:27;;;;;;;7.13;4.60;;;;;;;0.26;100.00;94175.41;2118349;27;20546;-82
2022/01/28 01:08:27;;;;;;;8.50;4.00;;;;;;;0.25;100.00;94173.88;2114896;28;20024;-81
2022/01/28 01:09:27;;;;;;;6.22;4.40;;;;;;;0.25;100.00;94193.03;2114918;28;20015;-82
2022/01/28 01:10:28;;;;;;;10.60;5.75;;;;;;;0.28;100.00;94181.13;2114889;28;20376;-81
2022/01/28 01:11:29;;;;;;;6.25;4.90;;;;;;;0.32;100.00;94183.88;2106137;28;20040;-81
2022/01/28 01:12:32;;;;;;;6.85;4.68;;;;;;;0.52;100.00;94185.66;2106415;28;20085;-81
2022/01/28 01:13:39;;;;;;;5.75;4.13;;;;;;;0.54;100.00;94185.38;2114912;28;20023;-83
2022/01/28 01:14:39;;;;;;;5.85;4.50;;;;;;;0.31;100.00;94183.13;2114889;28;20110;-83
2022/01/28 01:15:43;;;;;;;6.10;4.50;;;;;;;0.22;100.00;94185.81;2114949;27;20139;-82
2022/01/28 01:17:07;;;;;;;7.95;4.75;;;;;;;0.43;100.00;94174.47;2123640;27;20126;-82
2022/01/28 01:18:20;;;;;;;6.65;4.65;;;;;;;0.20;100.00;94171.47;2126454;27;20085;-83
2022/01/28 01:19:24;;;;;;;6.82;4.60;;;;;;;0.17;100.00;94172.84;2108017;28;20565;-82
2022/01/28 01:21:28;;;;;;;7.47;5.10;;;;;;;0.21;100.00;94176.38;2115201;27;20020;-81
2022/01/28 01:22:36;;;;;;;6.43;4.55;;;;;;;0.20;100.00;94179.34;2123288;27;20079;-83
2022/01/28 01:23:39;;;;;;;8.02;5.00;;;;;;;0.17;100.00;94182.59;2123182;27;20015;-84
2022/01/28 01:24:49;;;;;;;7.25;5.20;;;;;;;0.13;100.00;94182.50;2115033;27;20028;-83
2022/01/28 01:26:06;;;;;;;7.93;5.45;;;;;;;0.07;100.00;94178.53;2115964;27;20033;-83
2022/01/28 01:27:06;;;;;;;7.78;5.15;;;;;;;0.20;100.00;94184.59;2116956;27;20024;-82
2022/01/28 01:28:06;;;;;;;8.05;4.93;;;;;;;0.09;100.00;94178.19;2114720;28;20055;-82
2022/01/28 01:29:12;;;;;;;8.43;5.07;;;;;;;0.05;100.00;94172.84;2114669;28;20046;-84
2022/01/28 01:30:14;;;;;;;7.82;5.63;;;;;;;0.15;100.00;94182.19;2115393;27;20027;-84
2022/01/28 01:31:18;;;;;;;7.88;5.05;;;;;;;0.17;100.00;94193.88;2115590;27;20032;-83
2022/01/28 01:32:19;;;;;;;7.25;5.18;;;;;;;0.53;100.00;94192.50;2123138;27;20371;-83
2022/01/28 01:33:21;;;;;;;6.25;5.32;;;;;;;0.35;100.00;94202.41;2123059;27;20023;-83
2022/01/28 01:34:22;;;;;;;7.15;5.20;;;;;;;0.20;100.00;94201.13;2114781;27;20028;-83
2022/01/28 01:35:23;;;;;;;8.38;5.22;;;;;;;0.31;100.00;94198.91;2123085;27;20109;-83
2022/01/28 01:36:23;;;;;;;7.45;4.93;;;;;;;0.27;100.00;94191.97;2123200;27;20027;-83
2022/01/28 01:37:24;;;;;;;9.00;5.35;;;;;;;0.12;100.00;94188.84;2114583;28;20027;-83
2022/01/28 01:38:27;;;;;;;6.30;5.13;;;;;;;0.21;100.00;94189.53;2114659;28;20023;-82
2022/01/28 01:39:30;;;;;;;9.38;5.40;;;;;;;0.07;100.00;94188.28;2129791;27;20027;-81
2022/01/28 01:40:39;;;;;;;7.60;5.40;;;;;;;0.25;100.00;94176.50;2124502;27;20029;-82
2022/01/28 01:41:45;;;;;;;7.53;4.70;;;;;;;0.23;100.00;94181.34;2122996;27;20882;-82
2022/01/28 01:42:53;;;;;;;7.47;5.13;;;;;;;0.22;100.00;94182.41;2115870;27;20031;-82
2022/01/28 01:45:47;;;;;;;7.13;5.25;;;;;;;0.33;100.00;94194.06;2124012;27;20023;-82
2022/01/28 01:52:56;;;;;;;8.53;4.20;;;;;;;0.20;100.00;94197.75;2126190;27;20023;-81
2022/01/28 01:54:01;;;;;;;6.85;4.32;;;;;;;0.27;100.00;94205.88;2127834;27;20457;-83
2022/01/28 01:55:01;;;;;;;5.30;4.00;;;;;;;0.23;100.00;94203.13;2128366;27;20553;-84
2022/01/28 01:56:02;;;;;;;6.28;3.92;;;;;;;0.20;100.00;94209.03;2125973;27;20033;-82
2022/01/28 01:57:04;;;;;;;8.77;4.47;;;;;;;-0.01;100.00;94201.16;2122567;27;20379;-82
2022/01/28 01:58:04;;;;;;;7.78;4.63;;;;;;;0.01;100.00;94208.72;2119954;27;20072;-83
2022/01/28 01:59:07;;;;;;;4.75;4.25;;;;;;;0.22;100.00;94209.50;2127979;27;20079;-83
2022/01/28 02:00:09;;;;;;;5.88;4.40;;;;;;;0.32;100.00;94218.06;2122888;27;20532;-82
2022/01/28 02:01:09;;;;;;;5.20;4.05;;;;;;;0.36;100.00;94216.31;2114549;28;20053;-83
2022/01/28 02:02:11;;;;;;;6.15;3.10;;;;;;;0.47;100.00;94210.31;2127294;27;20067;-82
2022/01/28 02:03:11;;;;;;;5.10;3.17;;;;;;;0.41;100.00;94206.38;2127764;27;20074;-83
2022/01/28 02:04:11;;;;;;;3.80;3.42;;;;;;;0.30;100.00;94205.22;2127564;27;20063;-82
2022/01/28 02:05:12;;;;;;;4.30;3.10;;;;;;;0.19;100.00;94209.34;2118299;27;20032;-82
2022/01/28 02:06:12;;;;;;;7.18;3.30;;;;;;;0.32;100.00;94210.19;2127712;27;20033;-83
2022/01/28 02:07:16;;;;;;;6.18;3.30;;;;;;;0.18;100.00;94218.34;2129478;27;20027;-82
2022/01/28 02:08:16;;;;;;;3.15;2.85;;;;;;;0.14;100.00;94215.59;2121231;27;20366;-82
2022/01/28 02:10:45;;;;;;;;;;;;;;;0.20;100.00;94216.91;2148822;27;20113;-82
2022/01/28 02:11:45;;;;;;;4.43;2.90;;;;;;;0.28;100.00;94222.44;2138003;27;19911;-80
2022/01/28 02:12:52;;;;;;;4.80;3.47;;;;;;;0.41;100.00;94221.38;2131192;27;20106;-82
2022/01/28 02:13:52;;;;;;;5.00;3.03;;;;;;;0.51;100.00;94218.34;2138799;27;20022;-82
2022/01/28 02:14:53;;;;;;;5.57;4.00;;;;;;;0.56;100.00;94222.63;2130334;27;20056;-81
2022/01/28 02:15:54;;;;;;;4.38;3.88;;;;;;;0.54;100.00;94225.59;2130072;27;20079;-81
2022/01/28 02:16:55;;;;;;;8.40;4.20;;;;;;;0.40;100.00;94228.50;2123563;27;20076;-81
2022/01/28 02:17:59;;;;;;;6.22;4.57;;;;;;;0.42;100.00;94228.19;2121556;28;20413;-82
2022/01/28 02:19:00;;;;;;;8.80;4.88;;;;;;;0.44;100.00;94218.88;2130664;27;20026;-82
2022/01/28 02:20:00;;;;;;;5.65;4.53;;;;;;;0.39;100.00;94234.84;2129983;27;20045;-81
2022/01/28 02:21:10;;;;;;;6.18;4.75;;;;;;;0.25;100.00;94234.34;2130282;27;20037;-82
2022/01/28 02:22:10;;;;;;;8.38;5.40;;;;;;;0.13;100.00;94235.09;2134344;27;20057;-82
2022/01/28 02:23:11;;;;;;;9.70;5.60;;;;;;;0.31;100.00;94227.81;2134129;27;20106;-82
2022/01/28 02:24:14;;;;;;;9.82;5.63;;;;;;;0.12;100.00;94223.00;2126140;27;20022;-82
2022/01/28 02:25:22;;;;;;;11.13;5.53;;;;;;;0.03;100.00;94224.94;2125309;27;20432;-81
2022/01/28 02:26:22;;;;;;;7.63;5.70;;;;;;;0.05;100.00;94227.25;2126149;27;20064;-80
2022/01/28 02:27:22;;;;;;;8.05;5.85;;;;;;;0.08;100.00;94231.84;2132276;27;20053;-82
2022/01/28 02:28:25;;;;;;;12.45;7.13;;;;;;;0.01;100.00;94237.66;2130120;27;20072;-82
2022/01/28 02:29:30;;;;;;;9.43;6.07;;;;;;;0.07;100.00;94238.22;2136679;27;20023;-82
2022/01/28 02:30:31;;;;;;;11.15;6.45;;;;;;;-0.02;100.00;94244.28;2122572;27;20024;-82
2022/01/28 02:31:33;;;;;;;11.07;6.32;;;;;;;0.17;100.00;94246.47;2121411;28;20046;-82
2022/01/28 02:32:34;;;;;;;7.55;5.47;;;;;;;0.15;100.00;94246.03;2137092;27;20308;-82
2022/01/28 02:33:34;;;;;;;8.77;5.75;;;;;;;0.34;100.00;94250.81;2138580;27;20062;-81
2022/01/28 02:34:37;;;;;;;8.82;6.10;;;;;;;0.31;100.00;94248.06;2138621;27;20026;-82
2022/01/28 02:35:40;;;;;;;9.00;6.40;;;;;;;0.09;100.00;94243.91;2138470;27;20026;-82
2022/01/28 02:36:41;;;;;;;9.27;6.45;;;;;;;0.07;100.00;94246.88;2139040;27;20034;-83
2022/01/28 02:37:41;;;;;;;10.77;6.70;;;;;;;0.06;100.00;94255.84;2138520;27;20027;-81
2022/01/28 02:38:42;;;;;;;9.27;5.97;;;;;;;0.22;100.00;94253.38;2125464;27;20118;-82
2022/01/28 02:39:43;;;;;;;8.32;5.97;;;;;;;0.21;100.00;94257.13;2130033;27;20121;-83
2022/01/28 02:40:49;;;;;;;8.45;5.70;;;;;;;0.33;100.00;94261.66;2121378;28;20053;-83
2022/01/28 02:41:53;;;;;;;8.50;5.65;;;;;;;0.29;100.00;94258.16;2130912;27;20034;-81
2022/01/28 02:43:03;;;;;;;7.55;6.10;;;;;;;0.34;100.00;94266.59;2129927;27;20108;-82
2022/01/28 02:45:24;;;;;;;12.23;6.65;;;;;;;0.13;100.00;94257.94;2123061;27;20024;-83
2022/01/28 02:46:28;;;;;;;8.40;5.55;;;;;;;0.08;100.00;94268.66;2130617;27;20102;-82
2022/01/28 02:47:36;;;;;;;8.82;6.38;;;;;;;-0.13;100.00;94258.94;2121330;28;20110;-81
2022/01/28 02:48:39;;;;;;;10.57;6.70;;;;;;;-0.12;100.00;94252.56;2114012;28;20098;-81
2022/01/28 02:49:42;;;;;;;9.85;6.25;;;;;;;-0.10;100.00;94255.63;2121538;27;20112;-81
2022/01/28 02:51:57;;;;;;;11.88;7.20;;;;;;;0.16;100.00;94250.19;2123101;27;20027;-81
2022/01/28 02:53:08;;;;;;;8.13;6.65;;;;;;;0.14;100.00;94259.50;2124280;27;20022;-81
2022/01/28 02:54:14;;;;;;;;;;;;;;;0.03;100.00;94250.44;2121728;28;20502;-82
2022/01/28 02:55:15;;;;;;;12.77;6.88;;;;;;;-0.09;100.00;94254.56;2122229;27;19918;-81
2022/01/28 02:56:20;;;;;;;11.05;6.60;;;;;;;-0.06;100.00;94253.91;2131330;27;20094;-81
2022/01/28 02:57:25;;;;;;;10.13;6.57;;;;;;;-0.03;100.00;94255.91;2129692;27;20071;-80
2022/01/28 02:58:26;;;;;;;9.40;6.50;;;;;;;-0.06;100.00;94253.91;2129738;27;20501;-82
2022/01/28 02:59:27;;;;;;;11.73;6.82;;;;;;;0.08;100.00;94260.78;2129649;27;20027;-80
2022/01/28 03:00:27;;;;;;;8.75;6.47;;;;;;;0.04;100.00;94262.50;2129876;27;20022;-81
2022/01/28 03:01:28;;;;;;;10.70;6.75;;;;;;;0.08;100.00;94261.53;2130373;27;20039;-81
2022/01/28 03:02:28;;;;;;;9.35;6.78;;;;;;;-0.01;100.00;94263.47;2124859;27;20111;-81
2022/01/28 03:03:29;;;;;;;12.93;6.05;;;;;;;0.13;100.00;94256.13;2123967;27;20106;-82
2022/01/28 03:05:34;;;;;;;9.07;6.10;;;;;;;0.16;100.00;94267.81;2113309;28;20055;-80
2022/01/28 03:06:34;;;;;;;11.90;6.65;;;;;;;-0.02;100.00;94254.81;2112758;28;20102;-80
2022/01/28 03:07:35;;;;;;;11.50;6.93;;;;;;;0.00;100.00;94254.50;2119472;28;20057;-81
2022/01/28 03:08:36;;;;;;;11.23;7.05;;;;;;;-0.08;100.00;94265.84;2121130;28;20036;-81
2022/01/28 03:12:17;;;;;;;10.43;6.75;;;;;;;0.01;100.00;94269.19;2138973;27;20118;-81
2022/01/28 03:13:31;;;;;;;12.27;6.68;;;;;;;-0.02;100.00;94262.69;2139079;27;20478;-82
2022/01/28 03:14:36;;;;;;;8.32;5.82;;;;;;;-0.04;100.00;94261.50;2122444;27;20016;-81
2022/01/28 03:15:38;;;;;;;9.70;6.60;;;;;;;-0.15;100.00;94260.31;2121204;28;20027;-81
2022/01/28 03:18:19;;;;;;;10.10;6.45;;;;;;;-0.04;100.00;94261.50;2116534;27;20034;-82
2022/01/28 03:19:23;;;;;;;11.20;6.90;;;;;;;-0.11;100.00;94254.09;2121103;28;20111;-81
2022/01/28 03:22:32;;;;;;;8.45;5.72;;;;;;;0.12;100.00;94251.16;2124551;27;20026;-82
2022/01/28 03:23:36;;;;;;;9.63;6.00;;;;;;;0.19;100.00;94249.56;2115429;28;20076;-81
2022/01/28 03:24:38;;;;;;;11.18;6.70;;;;;;;0.05;100.00;94249.06;2115467;28;20400;-83
2022/01/28 03:25:43;;;;;;;11.00;6.40;;;;;;;0.04;100.00;94249.34;2107148;28;20029;-82
2022/01/28 03:26:44;;;;;;;11.88;6.60;;;;;;;0.11;100.00;94253.03;2107405;28;20028;-82
2022/01/28 03:27:51;;;;;;;9.40;5.72;;;;;;;0.18;100.00;94255.16;2106761;28;20422;-81
2022/01/28 03:28:52;;;;;;;11.23;6.68;;;;;;;0.31;100.00;94258.56;2107915;28;20024;-82
2022/01/28 03:29:52;;;;;;;10.18;6.85;;;;;;;0.14;100.00;94257.66;2106976;28;20024;-80
2022/01/28 03:30:53;;;;;;;11.23;6.22;;;;;;;0.28;100.00;94260.00;2107023;28;20054;-80
2022/01/28 03:31:59;;;;;;;8.13;6.10;;;;;;;0.09;100.00;94255.22;2115249;28;20407;-81
2022/01/28 03:33:06;;;;;;;11.32;6.78;;;;;;;0.07;100.00;94270.53;2106592;28;20028;-82
2022/01/28 03:34:13;;;;;;;10.90;5.88;;;;;;;0.15;100.00;94261.81;2107878;28;20028;-81
2022/01/28 03:35:16;;;;;;;9.63;6.18;;;;;;;0.05;100.00;94256.19;2116280;27;20031;-81
2022/01/28 03:36:16;;;;;;;12.32;6.78;;;;;;;0.09;100.00;94264.94;2115541;27;20031;-80
2022/01/28 03:37:17;;;;;;;10.63;6.53;;;;;;;0.19;100.00;94267.97;2123903;27;20443;-81
2022/01/28 03:38:17;;;;;;;8.23;6.35;;;;;;;0.14;100.00;94264.75;2123698;27;20356;-81
2022/01/28 03:39:19;;;;;;;10.80;6.70;;;;;;;0.30;100.00;94263.06;2114313;28;20028;-81
2022/01/28 03:40:20;;;;;;;18.73;6.68;;;;;;;0.36;100.00;94272.31;2106940;28;20024;-81
2022/01/28 03:41:23;;;;;;;11.40;7.13;;;;;;;0.08;100.00;94269.44;2115445;28;20112;-82
2022/01/28 03:42:23;;;;;;;10.52;6.28;;;;;;;0.13;100.00;94273.72;2124656;27;20027;-81
2022/01/28 03:43:24;;;;;;;11.55;6.43;;;;;;;0.07;100.00;94269.75;2130548;27;20014;-81
2022/01/28 03:44:24;;;;;;;11.00;7.35;;;;;;;-0.01;100.00;94264.22;2133116;27;20027;-80
2022/01/28 03:45:25;;;;;;;15.32;7.70;;;;;;;-0.01;100.00;94268.72;2123804;27;20051;-81
2022/01/28 03:46:26;;;;;;;9.55;6.75;;;;;;;0.08;100.00;94274.69;2113181;28;20077;-80
2022/01/28 03:47:27;;;;;;;8.90;6.32;;;;;;;0.26;100.00;94272.69;2106775;28;20082;-80
2022/01/28 03:48:27;;;;;;;13.82;6.70;;;;;;;0.19;100.00;94273.22;2106905;28;20020;-81
2022/01/28 03:49:27;;;;;;;11.27;6.70;;;;;;;0.05;100.00;94271.94;2106802;28;20027;-82
2022/01/28 03:50:32;;;;;;;13.57;6.95;;;;;;;0.07;100.00;94269.75;2119835;27;20023;-81
2022/01/28 03:51:33;;;;;;;11.20;5.90;;;;;;;0.03;100.00;94274.88;2123638;27;20037;-82
2022/01/28 03:52:33;;;;;;;8.90;6.38;;;;;;;0.02;100.00;94273.34;2123822;27;20037;-82
2022/01/28 03:53:38;;;;;;;10.80;6.32;;;;;;;0.01;100.00;94271.81;2131469;27;20490;-82
2022/01/28 03:54:38;;;;;;;10.80;7.05;;;;;;;-0.05;100.00;94275.69;2118917;27;20360;-81
2022/01/28 03:55:38;;;;;;;13.07;6.57;;;;;;;-0.04;100.00;94274.63;2123820;27;20030;-81
2022/01/28 03:56:39;;;;;;;12.63;6.30;;;;;;;0.08;100.00;94271.28;2123838;27;20110;-81
2022/01/28 03:57:39;;;;;;;10.73;6.72;;;;;;;0.07;100.00;94270.53;2106978;28;20491;-82
2022/01/28 03:58:40;;;;;;;10.55;6.65;;;;;;;0.18;100.00;94276.19;2106674;28;20051;-80
2022/01/28 03:59:40;;;;;;;7.22;5.80;;;;;;;0.19;100.00;94280.34;2106669;28;20024;-81
2022/01/28 04:00:41;;;;;;;9.15;6.18;;;;;;;0.27;100.00;94282.13;2115056;28;20349;-80
2022/01/28 04:01:44;;;;;;;10.52;6.13;;;;;;;0.35;100.00;94276.03;2106609;28;20496;-81
2022/01/28 04:02:46;;;;;;;14.10;6.65;;;;;;;0.23;100.00;94281.25;2107010;28;20028;-82
2022/01/28 04:04:02;;;;;;;10.55;6.63;;;;;;;0.17;100.00;94298.28;2114508;28;20024;-80
2022/01/28 04:11:59;;;;;;;8.38;6.10;;;;;;;0.05;100.00;94290.34;2099237;28;20029;-81
2022/01/28 04:13:00;;;;;;;11.48;6.82;;;;;;;0.16;100.00;94280.97;2115827;28;20076;-83
2022/01/28 04:14:25;;;;;;;9.27;6.25;;;;;;;0.05;100.00;94283.22;2118384;27;20092;-82
2022/01/28 04:17:55;;;;;;;8.88;6.43;;;;;;;0.17;100.00;94287.75;2125863;27;20085;-82
2022/01/28 04:18:57;;;;;;;9.77;6.25;;;;;;;0.12;100.00;94298.47;2123489;27;20454;-82
2022/01/28 04:19:57;;;;;;;11.82;6.88;;;;;;;0.20;100.00;94298.41;2114771;28;20023;-82
2022/01/28 04:20:57;;;;;;;10.77;6.80;;;;;;;0.18;100.00;94299.84;2112255;28;20027;-82
2022/01/28 04:21:58;;;;;;;11.90;7.15;;;;;;;0.04;100.00;94294.81;2109694;27;20036;-81
2022/01/28 04:22:58;;;;;;;12.25;7.78;;;;;;;-0.04;100.00;94301.69;2113512;27;20028;-83
2022/01/28 04:23:59;;;;;;;11.57;6.93;;;;;;;0.05;100.00;94303.50;2108311;28;20027;-81
2022/01/28 04:24:59;;;;;;;12.93;6.53;;;;;;;0.27;100.00;94297.16;2110037;28;20389;-82
2022/01/28 04:25:59;;;;;;;16.00;7.55;;;;;;;0.31;100.00;94296.19;2114694;28;20042;-83
2022/01/28 04:27:00;;;;;;;15.52;7.28;;;;;;;0.30;100.00;94293.84;2114538;28;20035;-82
2022/01/28 04:28:00;;;;;;;12.05;7.30;;;;;;;0.27;100.00;94291.88;2121461;27;20019;-80
2022/01/28 04:29:01;;;;;;;17.40;7.32;;;;;;;0.14;100.00;94294.44;2114840;28;20023;-81
2022/01/28 04:30:01;;;;;;;9.65;6.95;;;;;;;0.02;100.00;94298.84;2114606;28;20015;-82
2022/01/28 04:31:02;;;;;;;10.90;7.90;;;;;;;-0.06;100.00;94290.69;2114649;28;20460;-81
2022/01/28 04:32:04;;;;;;;10.23;7.43;;;;;;;0.02;100.00;94289.13;2114479;28;20116;-82
2022/01/28 04:33:05;;;;;;;14.15;7.75;;;;;;;-0.07;100.00;94291.78;2114686;28;20023;-81
2022/01/28 04:34:05;;;;;;;13.73;8.20;;;;;;;0.08;100.00;94295.72;2114077;28;20062;-81
2022/01/28 04:35:07;;;;;;;17.00;8.05;;;;;;;0.04;100.00;94299.28;2111260;28;20485;-81
2022/01/28 04:36:10;;;;;;;12.88;6.97;;;;;;;0.20;100.00;94301.03;2106167;28;20023;-81
2022/01/28 04:37:19;;;;;;;13.55;7.53;;;;;;;0.30;100.00;94297.25;2123159;27;20027;-82
2022/01/28 04:40:34;;;;;;;19.42;7.60;;;;;;;0.05;100.00;94292.97;2132613;27;20019;-81
2022/01/28 04:41:51;;;;;;;11.57;7.78;;;;;;;0.14;100.00;94293.69;2123117;27;20023;-82
2022/01/28 04:43:04;;;;;;;14.73;8.13;;;;;;;0.18;100.00;94294.59;2117156;27;20019;-82
2022/01/28 04:44:13;;;;;;;10.63;7.20;;;;;;;0.41;100.00;94298.41;2116327;27;20024;-81
2022/01/28 04:47:33;;;;;;;17.63;7.28;;;;;;;0.35;100.00;94299.72;2132503;27;20022;-82
2022/01/28 04:48:45;;;;;;;12.05;7.90;;;;;;;0.15;100.00;94295.97;2123277;27;20463;-79
2022/01/28 04:50:06;;;;;;;13.70;7.72;;;;;;;-0.03;100.00;94292.69;2116274;27;20023;-81
2022/01/28 04:53:38;;;;;;;14.77;8.35;;;;;;;0.12;100.00;94295.84;2115456;28;20023;-81
2022/01/28 04:56:08;;;;;;;17.02;8.05;;;;;;;0.10;100.00;94296.19;2115423;28;20841;-81
2022/01/28 04:57:29;;;;;;;16.25;7.85;;;;;;;0.25;100.00;94303.47;2130163;27;20142;-80
2022/01/28 05:00:12;;;;;;;13.88;7.03;;;;;;;0.33;100.00;94299.25;2117923;27;20086;-81
2022/01/28 05:01:16;;;;;;;12.70;7.13;;;;;;;0.30;100.00;94293.84;2113055;28;20037;-80
2022/01/28 05:09:55;;;;;;;10.57;6.93;;;;;;;0.18;100.00;94303.22;2115411;28;20028;-80
2022/01/28 05:11:15;;;;;;;18.90;8.07;;;;;;;0.19;100.00;94306.63;2098340;28;20048;-81
2022/01/28 05:27:11;;;;;;;11.07;8.20;;;;;;;0.03;100.00;94326.69;2098234;28;20381;-80
2022/01/28 05:28:12;;;;;;;13.57;8.25;;;;;;;-0.07;100.00;94327.81;2112776;28;20396;-80
2022/01/28 05:29:12;;;;;;;13.85;8.13;;;;;;;0.05;100.00;94332.41;2105887;28;20023;-82
2022/01/28 05:30:13;;;;;;;19.48;8.52;;;;;;;-0.03;100.00;94326.88;2097461;28;20059;-81
2022/01/28 05:31:13;;;;;;;14.30;7.97;;;;;;;-0.04;100.00;94333.22;2106153;28;20035;-81
2022/01/28 05:32:13;;;;;;;13.48;7.40;;;;;;;0.09;100.00;94322.75;2106644;28;20020;-83
2022/01/28 05:33:14;;;;;;;12.15;7.88;;;;;;;0.04;100.00;94328.97;2105848;28;20049;-81
2022/01/28 05:34:15;;;;;;;12.18;7.60;;;;;;;-0.05;100.00;94330.88;2097572;28;20020;-80
2022/01/28 05:35:15;;;;;;;15.05;8.10;;;;;;;-0.03;100.00;94332.13;2106017;28;20031;-82
2022/01/28 05:36:16;;;;;;;13.15;9.48;;;;;;;0.04;100.00;94330.84;2114481;28;20059;-81
2022/01/28 05:37:16;;;;;;;15.90;8.52;;;;;;;0.22;100.00;94337.53;2111486;28;20656;-81
2022/01/28 05:38:17;;;;;;;14.98;9.23;;;;;;;0.16;100.00;94323.81;2104997;28;20039;-81
2022/01/28 05:39:18;;;;;;;16.67;8.52;;;;;;;0.35;100.00;94328.63;2097392;28;20449;-82
2022/01/28 05:40:18;;;;;;;14.85;7.10;;;;;;;0.24;100.00;94343.25;2097973;28;20020;-81
2022/01/28 05:41:19;;;;;;;13.15;8.68;;;;;;;0.22;100.00;94337.53;2114403;28;20430;-80
2022/01/28 05:42:19;;;;;;;11.65;7.28;;;;;;;0.31;100.00;94345.34;2115165;28;20024;-82
2022/01/28 05:43:20;;;;;;;14.52;7.97;;;;;;;0.14;100.00;94341.00;2109838;28;20020;-81
2022/01/28 05:44:21;;;;;;;14.05;8.82;;;;;;;0.16;100.00;94349.31;2105864;28;20087;-83
2022/01/28 05:45:22;;;;;;;13.35;8.25;;;;;;;0.06;100.00;94339.97;2106095;28;20372;-80
2022/01/28 05:46:27;;;;;;;18.02;8.80;;;;;;;0.08;100.00;94350.13;2106622;28;20040;-80
2022/01/28 05:47:28;;;;;;;15.73;8.30;;;;;;;0.11;100.00;94354.78;2106304;28;20472;-82
2022/01/28 05:48:29;;;;;;;13.02;7.75;;;;;;;0.13;100.00;94357.84;2103402;28;20024;-80
2022/01/28 05:49:30;;;;;;;13.73;8.48;;;;;;;0.28;100.00;94367.81;2105897;28;20112;-81
2022/01/28 05:50:31;;;;;;;13.93;7.75;;;;;;;0.09;100.00;94349.84;2112174;28;20468;-82
2022/01/28 05:51:31;;;;;;;22.23;8.73;;;;;;;0.39;100.00;94361.06;2114290;28;20024;-81
2022/01/28 05:52:32;;;;;;;12.68;8.25;;;;;;;0.19;100.00;94364.47;2115222;28;20206;-79
2022/01/28 05:53:33;;;;;;;11.65;7.90;;;;;;;0.09;100.00;94367.44;2111598;28;20150;-81
2022/01/28 05:54:33;;;;;;;13.95;8.63;;;;;;;0.02;100.00;94364.56;2097522;28;20035;-81
2022/01/28 05:55:35;;;;;;;13.50;8.18;;;;;;;-0.04;100.00;94361.34;2097472;28;20024;-81
2022/01/28 05:56:36;;;;;;;16.92;8.57;;;;;;;0.02;100.00;94359.31;2097480;28;20151;-80
2022/01/28 05:57:36;;;;;;;14.75;9.02;;;;;;;-0.02;100.00;94364.44;2098394;28;20027;-80
2022/01/28 05:58:36;;;;;;;12.98;8.18;;;;;;;0.05;100.00;94364.72;2105938;28;20484;-78
2022/01/28 05:59:37;;;;;;;16.27;8.85;;;;;;;0.01;100.00;94368.28;2105761;28;20024;-80
2022/01/28 06:00:37;;;;;;;16.17;9.35;;;;;;;0.02;100.00;94367.97;2105801;28;20020;-81
2022/01/28 06:01:38;;;;;;;13.75;8.60;;;;;;;-0.11;100.00;94363.69;2105628;28;20032;-83
2022/01/28 06:02:38;;;;;;;19.85;9.50;;;;;;;-0.02;100.00;94367.06;2105778;28;20020;-81
2022/01/28 06:03:39;;;;;;;20.00;8.90;;;;;;;-0.14;100.00;94369.59;2105689;28;20020;-82
2022/01/28 06:04:39;;;;;;;14.32;8.40;;;;;;;-0.12;100.00;94377.94;2106631;28;20401;-81
2022/01/28 06:05:40;;;;;;;16.45;8.93;;;;;;;-0.19;100.00;94382.91;2105654;28;20338;-81
2022/01/28 06:06:41;;;;;;;11.00;7.18;;;;;;;-0.16;100.00;94375.16;2105700;28;20031;-81
2022/01/28 06:07:42;;;;;;;16.33;8.52;;;;;;;-0.14;100.00;94383.47;2097511;28;20035;-81
2022/01/28 06:08:46;;;;;;;14.20;8.18;;;;;;;-0.04;100.00;94379.75;2097457;28;20122;-80
2022/01/28 06:09:46;;;;;;;14.60;8.55;;;;;;;-0.08;100.00;94386.72;2106210;27;20026;-81
2022/01/28 06:10:47;;;;;;;12.98;8.40;;;;;;;-0.30;100.00;94379.88;2114028;28;20519;-81
2022/01/28 06:11:47;;;;;;;17.73;8.80;;;;;;;-0.28;100.00;94381.06;2114198;28;20026;-81
2022/01/28 06:12:47;;;;;;;13.35;8.63;;;;;;;-0.15;100.00;94383.81;2114212;28;20437;-81
2022/01/28 06:13:48;;;;;;;14.85;8.50;;;;;;;-0.29;100.00;94389.28;2110443;28;20024;-82
2022/01/28 06:14:49;;;;;;;12.77;7.50;;;;;;;-0.27;100.00;94385.25;2113366;28;20070;-83
2022/01/28 06:15:49;;;;;;;11.30;7.22;;;;;;;-0.20;100.00;94390.00;2114288;28;20028;-81
2022/01/28 06:16:50;;;;;;;13.75;8.00;;;;;;;-0.17;100.00;94386.75;2120595;28;20027;-82